Terminal Aerodrome Forecast
Issued by NWS

Home | Current Version | Previous Version | Text Only | Print | Product List | Glossary On
Versions: 1 2 3 4 5 6 7 8 9 10 11 12 13 14 15 16
000
FTUS42 KILM 231205 AAA
TAFCRE
TAF AMD
KCRE 231205Z 2312/2412 06010KT P6SM VCTS SCT030 BKN050CB
      TEMPO 2312/2313 OVC020CB
     FM231400 23005KT P6SM SCT030 SCT060
     FM231700 21010KT P6SM VCTS SCT040CB SCT250
      TEMPO 2318/2320 VRB15KT P6SM TSRA SCT025 BKN040CB
     FM240400 22003KT P6SM SCT250=

USA.gov is the U.S. government's official web portal to all federal, state and local government web resources and services.